sensor_id;sensor_type;location;lat;lon;timestamp;temperature;humidity
10873;DHT22;34586;53.616;10.032;2023-05-27T00:01:20;10.10;99.90
10873;DHT22;34586;53.616;10.032;2023-05-27T00:03:46;10.10;99.90
10873;DHT22;34586;53.616;10.032;2023-05-27T00:06:12;10.00;99.90
10873;DHT22;34586;53.616;10.032;2023-05-27T00:08:38;10.10;99.90
10873;DHT22;34586;53.616;10.032;2023-05-27T00:11:03;10.00;99.90
10873;DHT22;34586;53.616;10.032;2023-05-27T00:13:29;9.90;99.90
10873;DHT22;34586;53.616;10.032;2023-05-27T00:15:54;9.90;99.90
10873;DHT22;34586;53.616;10.032;2023-05-27T00:18:21;9.90;99.90
10873;DHT22;34586;53.616;10.032;2023-05-27T00:20:46;9.90;99.90
10873;DHT22;34586;53.616;10.032;2023-05-27T00:23:13;9.80;99.90
10873;DHT22;34586;53.616;10.032;2023-05-27T00:25:39;9.80;99.90
10873;DHT22;34586;53.616;10.032;2023-05-27T00:28:04;9.70;99.90
10873;DHT22;34586;53.616;10.032;2023-05-27T00:30:30;9.70;99.90
10873;DHT22;34586;53.616;10.032;2023-05-27T00:32:56;9.70;99.90
10873;DHT22;34586;53.616;10.032;2023-05-27T00:35:21;9.70;99.90
10873;DHT22;34586;53.616;10.032;2023-05-27T00:37:47;9.70;99.90
10873;DHT22;34586;53.616;10.032;2023-05-27T00:40:14;9.70;99.90
10873;DHT22;34586;53.616;10.032;2023-05-27T00:42:41;9.60;99.90
10873;DHT22;34586;53.616;10.032;2023-05-27T00:45:07;9.60;99.90
10873;DHT22;34586;53.616;10.032;2023-05-27T00:47:34;9.60;99.90
10873;DHT22;34586;53.616;10.032;2023-05-27T00:50:00;9.60;99.90
10873;DHT22;34586;53.616;10.032;2023-05-27T00:52:26;9.60;99.90
10873;DHT22;34586;53.616;10.032;2023-05-27T00:54:52;9.50;99.90
10873;DHT22;34586;53.616;10.032;2023-05-27T00:57:19;9.50;99.90
10873;DHT22;34586;53.616;10.032;2023-05-27T00:59:45;9.40;99.90
10873;DHT22;34586;53.616;10.032;2023-05-27T01:02:11;9.30;99.90
10873;DHT22;34586;53.616;10.032;2023-05-27T01:04:37;9.30;99.90
10873;DHT22;34586;53.616;10.032;2023-05-27T01:09:52;9.30;99.90
10873;DHT22;34586;53.616;10.032;2023-05-27T01:12:40;9.20;99.90
10873;DHT22;34586;53.616;10.032;2023-05-27T01:15:09;9.20;99.90
10873;DHT22;34586;53.616;10.032;2023-05-27T01:17:36;9.30;99.90
10873;DHT22;34586;53.616;10.032;2023-05-27T01:20:09;9.20;99.90
10873;DHT22;34586;53.616;10.032;2023-05-27T01:22:35;9.20;99.90
10873;DHT22;34586;53.616;10.032;2023-05-27T01:25:02;9.30;99.90
10873;DHT22;34586;53.616;10.032;2023-05-27T01:27:28;9.10;99.90
10873;DHT22;34586;53.616;10.032;2023-05-27T01:29:54;9.10;99.90
10873;DHT22;34586;53.616;10.032;2023-05-27T01:32:38;9.10;99.90
10873;DHT22;34586;53.616;10.032;2023-05-27T01:35:31;9.10;99.90
10873;DHT22;34586;53.616;10.032;2023-05-27T01:37:59;9.10;99.90
10873;DHT22;34586;53.616;10.032;2023-05-27T01:40:27;9.20;99.90
10873;DHT22;34586;53.616;10.032;2023-05-27T01:42:54;9.10;99.90
10873;DHT22;34586;53.616;10.032;2023-05-27T01:45:21;9.10;99.90
10873;DHT22;34586;53.616;10.032;2023-05-27T01:47:46;9.00;99.90
10873;DHT22;34586;53.616;10.032;2023-05-27T01:50:12;9.10;99.90
10873;DHT22;34586;53.616;10.032;2023-05-27T01:52:38;9.00;99.90
10873;DHT22;34586;53.616;10.032;2023-05-27T01:55:04;8.90;99.90
10873;DHT22;34586;53.616;10.032;2023-05-27T01:57:30;8.90;99.90
10873;DHT22;34586;53.616;10.032;2023-05-27T01:59:56;8.90;99.90
10873;DHT22;34586;53.616;10.032;2023-05-27T02:02:22;8.80;99.90
10873;DHT22;34586;53.616;10.032;2023-05-27T02:04:47;8.80;99.90
10873;DHT22;34586;53.616;10.032;2023-05-27T02:07:13;8.80;99.90
10873;DHT22;34586;53.616;10.032;2023-05-27T02:09:38;8.80;99.90
10873;DHT22;34586;53.616;10.032;2023-05-27T02:12:04;8.70;99.90
10873;DHT22;34586;53.616;10.032;2023-05-27T02:14:31;8.70;99.90
10873;DHT22;34586;53.616;10.032;2023-05-27T02:16:57;8.80;99.90
10873;DHT22;34586;53.616;10.032;2023-05-27T02:19:23;8.70;99.90
10873;DHT22;34586;53.616;10.032;2023-05-27T02:21:50;8.70;99.90
10873;DHT22;34586;53.616;10.032;2023-05-27T02:24:15;8.70;99.90
10873;DHT22;34586;53.616;10.032;2023-05-27T02:26:41;8.70;99.90
10873;DHT22;34586;53.616;10.032;2023-05-27T02:29:06;8.80;99.90
10873;DHT22;34586;53.616;10.032;2023-05-27T02:31:32;8.70;99.90
10873;DHT22;34586;53.616;10.032;2023-05-27T02:33:58;8.70;99.90
10873;DHT22;34586;53.616;10.032;2023-05-27T02:36:23;8.70;99.90
10873;DHT22;34586;53.616;10.032;2023-05-27T02:38:49;8.60;99.90
10873;DHT22;34586;53.616;10.032;2023-05-27T02:41:15;8.60;99.90
10873;DHT22;34586;53.616;10.032;2023-05-27T02:43:40;8.00;99.90
10873;DHT22;34586;53.616;10.032;2023-05-27T02:46:06;8.60;99.90
10873;DHT22;34586;53.616;10.032;2023-05-27T02:48:32;8.60;99.90
10873;DHT22;34586;53.616;10.032;2023-05-27T02:50:57;8.50;99.90
10873;DHT22;34586;53.616;10.032;2023-05-27T02:53:23;8.50;99.90
10873;DHT22;34586;53.616;10.032;2023-05-27T02:55:49;8.50;99.90
10873;DHT22;34586;53.616;10.032;2023-05-27T02:58:15;8.50;99.90
10873;DHT22;34586;53.616;10.032;2023-05-27T03:00:41;8.50;99.90
10873;DHT22;34586;53.616;10.032;2023-05-27T03:03:06;8.40;99.90
10873;DHT22;34586;53.616;10.032;2023-05-27T03:05:34;8.40;99.90
10873;DHT22;34586;53.616;10.032;2023-05-27T03:08:01;8.40;99.90
10873;DHT22;34586;53.616;10.032;2023-05-27T03:10:26;8.40;99.90
10873;DHT22;34586;53.616;10.032;2023-05-27T03:12:54;8.40;99.90
10873;DHT22;34586;53.616;10.032;2023-05-27T03:15:20;8.30;99.90
10873;DHT22;34586;53.616;10.032;2023-05-27T03:17:47;8.30;99.90
10873;DHT22;34586;53.616;10.032;2023-05-27T03:20:12;8.40;99.90
10873;DHT22;34586;53.616;10.032;2023-05-27T03:22:38;8.40;99.90
10873;DHT22;34586;53.616;10.032;2023-05-27T03:25:04;8.40;99.90
10873;DHT22;34586;53.616;10.032;2023-05-27T03:27:30;8.40;99.90
10873;DHT22;34586;53.616;10.032;2023-05-27T03:29:56;8.40;99.90
10873;DHT22;34586;53.616;10.032;2023-05-27T03:32:22;8.40;99.90
10873;DHT22;34586;53.616;10.032;2023-05-27T03:34:47;8.40;99.90
10873;DHT22;34586;53.616;10.032;2023-05-27T03:37:13;8.40;99.90
10873;DHT22;34586;53.616;10.032;2023-05-27T03:39:39;8.40;99.90
10873;DHT22;34586;53.616;10.032;2023-05-27T03:42:05;8.40;99.90
10873;DHT22;34586;53.616;10.032;2023-05-27T03:44:32;8.40;99.90
10873;DHT22;34586;53.616;10.032;2023-05-27T03:46:57;8.40;99.90
10873;DHT22;34586;53.616;10.032;2023-05-27T03:49:23;8.40;99.90
10873;DHT22;34586;53.616;10.032;2023-05-27T03:51:49;8.40;99.90
10873;DHT22;34586;53.616;10.032;2023-05-27T03:54:14;8.50;99.90
10873;DHT22;34586;53.616;10.032;2023-05-27T03:56:40;8.40;99.90
10873;DHT22;34586;53.616;10.032;2023-05-27T03:59:05;8.40;99.90
10873;DHT22;34586;53.616;10.032;2023-05-27T04:01:34;8.50;99.90
10873;DHT22;34586;53.616;10.032;2023-05-27T04:03:59;8.50;99.90
10873;DHT22;34586;53.616;10.032;2023-05-27T04:06:25;8.50;99.90
10873;DHT22;34586;53.616;10.032;2023-05-27T04:08:52;8.50;99.90
10873;DHT22;34586;53.616;10.032;2023-05-27T04:11:17;8.50;99.90
10873;DHT22;34586;53.616;10.032;2023-05-27T04:13:43;8.50;99.90
10873;DHT22;34586;53.616;10.032;2023-05-27T04:16:08;8.60;99.90
10873;DHT22;34586;53.616;10.032;2023-05-27T04:18:35;8.60;99.90
10873;DHT22;34586;53.616;10.032;2023-05-27T04:21:01;8.60;99.90
10873;DHT22;34586;53.616;10.032;2023-05-27T04:23:26;8.70;99.90
10873;DHT22;34586;53.616;10.032;2023-05-27T04:25:52;8.70;99.90
10873;DHT22;34586;53.616;10.032;2023-05-27T04:28:18;8.70;99.90
10873;DHT22;34586;53.616;10.032;2023-05-27T04:30:44;8.80;99.90
10873;DHT22;34586;53.616;10.032;2023-05-27T04:33:15;8.70;99.90
10873;DHT22;34586;53.616;10.032;2023-05-27T04:35:40;8.80;99.90
10873;DHT22;34586;53.616;10.032;2023-05-27T04:38:11;8.80;99.90
10873;DHT22;34586;53.616;10.032;2023-05-27T04:40:44;8.90;99.90
10873;DHT22;34586;53.616;10.032;2023-05-27T04:43:18;8.90;99.90
10873;DHT22;34586;53.616;10.032;2023-05-27T04:45:44;9.10;99.90
10873;DHT22;34586;53.616;10.032;2023-05-27T04:48:10;9.00;99.90
10873;DHT22;34586;53.616;10.032;2023-05-27T04:50:36;9.20;99.90
10873;DHT22;34586;53.616;10.032;2023-05-27T04:53:01;9.20;99.90
10873;DHT22;34586;53.616;10.032;2023-05-27T04:55:28;9.20;99.90
10873;DHT22;34586;53.616;10.032;2023-05-27T04:57:54;9.40;99.90
10873;DHT22;34586;53.616;10.032;2023-05-27T05:00:21;9.30;99.90
10873;DHT22;34586;53.616;10.032;2023-05-27T05:03:06;9.30;99.90
10873;DHT22;34586;53.616;10.032;2023-05-27T05:05:32;9.40;99.90
10873;DHT22;34586;53.616;10.032;2023-05-27T05:07:58;9.40;99.90
10873;DHT22;34586;53.616;10.032;2023-05-27T05:10:24;9.50;99.90
10873;DHT22;34586;53.616;10.032;2023-05-27T05:12:50;9.50;99.90
10873;DHT22;34586;53.616;10.032;2023-05-27T05:15:16;9.60;99.90
10873;DHT22;34586;53.616;10.032;2023-05-27T05:17:41;9.60;99.90
10873;DHT22;34586;53.616;10.032;2023-05-27T05:20:07;9.70;99.90
10873;DHT22;34586;53.616;10.032;2023-05-27T05:22:34;9.80;99.90
10873;DHT22;34586;53.616;10.032;2023-05-27T05:25:00;9.90;99.90
10873;DHT22;34586;53.616;10.032;2023-05-27T05:27:26;9.90;99.90
10873;DHT22;34586;53.616;10.032;2023-05-27T05:29:52;10.10;99.90
10873;DHT22;34586;53.616;10.032;2023-05-27T05:32:17;10.10;99.90
10873;DHT22;34586;53.616;10.032;2023-05-27T05:34:43;10.30;99.90
10873;DHT22;34586;53.616;10.032;2023-05-27T05:37:08;10.40;99.90
10873;DHT22;34586;53.616;10.032;2023-05-27T05:39:36;10.40;99.90
10873;DHT22;34586;53.616;10.032;2023-05-27T05:42:02;10.40;99.90
10873;DHT22;34586;53.616;10.032;2023-05-27T05:44:28;10.50;99.90
10873;DHT22;34586;53.616;10.032;2023-05-27T05:46:54;10.50;99.90
10873;DHT22;34586;53.616;10.032;2023-05-27T05:49:19;10.70;99.90
10873;DHT22;34586;53.616;10.032;2023-05-27T05:51:45;10.70;99.90
10873;DHT22;34586;53.616;10.032;2023-05-27T05:54:11;10.70;99.90
10873;DHT22;34586;53.616;10.032;2023-05-27T05:56:36;10.80;99.90
10873;DHT22;34586;53.616;10.032;2023-05-27T05:59:02;10.80;99.90
10873;DHT22;34586;53.616;10.032;2023-05-27T06:01:27;10.90;99.90
10873;DHT22;34586;53.616;10.032;2023-05-27T06:03:54;10.90;99.90
10873;DHT22;34586;53.616;10.032;2023-05-27T06:06:20;11.00;99.90
10873;DHT22;34586;53.616;10.032;2023-05-27T06:08:45;11.10;99.90
10873;DHT22;34586;53.616;10.032;2023-05-27T06:11:11;11.10;99.90
10873;DHT22;34586;53.616;10.032;2023-05-27T06:13:37;11.20;99.90
10873;DHT22;34586;53.616;10.032;2023-05-27T06:16:03;11.30;99.90
10873;DHT22;34586;53.616;10.032;2023-05-27T06:18:28;11.30;99.90
10873;DHT22;34586;53.616;10.032;2023-05-27T06:20:54;11.40;99.90
10873;DHT22;34586;53.616;10.032;2023-05-27T06:23:19;11.50;99.90
10873;DHT22;34586;53.616;10.032;2023-05-27T06:25:45;11.60;99.90
10873;DHT22;34586;53.616;10.032;2023-05-27T06:28:11;11.70;99.90
10873;DHT22;34586;53.616;10.032;2023-05-27T06:30:37;11.80;99.90
10873;DHT22;34586;53.616;10.032;2023-05-27T06:33:03;11.80;99.90
10873;DHT22;34586;53.616;10.032;2023-05-27T06:35:29;11.90;99.90
10873;DHT22;34586;53.616;10.032;2023-05-27T06:37:54;12.00;99.90
10873;DHT22;34586;53.616;10.032;2023-05-27T06:40:20;12.10;99.90
10873;DHT22;34586;53.616;10.032;2023-05-27T06:42:45;12.20;99.90
10873;DHT22;34586;53.616;10.032;2023-05-27T06:45:11;12.30;99.90
10873;DHT22;34586;53.616;10.032;2023-05-27T06:47:37;12.30;99.90
10873;DHT22;34586;53.616;10.032;2023-05-27T06:50:03;12.40;99.90
10873;DHT22;34586;53.616;10.032;2023-05-27T06:52:29;12.50;99.90
10873;DHT22;34586;53.616;10.032;2023-05-27T06:54:55;12.60;99.90
10873;DHT22;34586;53.616;10.032;2023-05-27T06:57:21;12.70;99.90
10873;DHT22;34586;53.616;10.032;2023-05-27T06:59:46;12.70;99.90
10873;DHT22;34586;53.616;10.032;2023-05-27T07:02:12;12.90;99.90
10873;DHT22;34586;53.616;10.032;2023-05-27T07:04:37;12.90;99.90
10873;DHT22;34586;53.616;10.032;2023-05-27T07:07:03;13.00;99.90
10873;DHT22;34586;53.616;10.032;2023-05-27T07:09:29;13.00;99.90
10873;DHT22;34586;53.616;10.032;2023-05-27T07:11:54;13.20;99.90
10873;DHT22;34586;53.616;10.032;2023-05-27T07:14:20;13.10;99.90
10873;DHT22;34586;53.616;10.032;2023-05-27T07:16:46;13.30;99.90
10873;DHT22;34586;53.616;10.032;2023-05-27T07:19:11;13.30;99.90
10873;DHT22;34586;53.616;10.032;2023-05-27T07:21:37;13.40;99.90
10873;DHT22;34586;53.616;10.032;2023-05-27T07:24:03;13.40;99.90
10873;DHT22;34586;53.616;10.032;2023-05-27T07:26:32;13.50;99.90
10873;DHT22;34586;53.616;10.032;2023-05-27T07:28:59;13.60;99.90
10873;DHT22;34586;53.616;10.032;2023-05-27T07:31:26;13.70;99.90
10873;DHT22;34586;53.616;10.032;2023-05-27T07:33:52;13.70;99.90
10873;DHT22;34586;53.616;10.032;2023-05-27T07:36:17;13.80;99.90
10873;DHT22;34586;53.616;10.032;2023-05-27T07:38:43;13.90;99.90
10873;DHT22;34586;53.616;10.032;2023-05-27T07:41:10;14.00;99.90
10873;DHT22;34586;53.616;10.032;2023-05-27T07:43:36;14.00;79.80
10873;DHT22;34586;53.616;10.032;2023-05-27T07:46:02;14.10;99.00
10873;DHT22;34586;53.616;10.032;2023-05-27T07:48:28;14.10;64.40
10873;DHT22;34586;53.616;10.032;2023-05-27T07:50:54;14.30;76.10
10873;DHT22;34586;53.616;10.032;2023-05-27T07:53:19;14.20;1.00
10873;DHT22;34586;53.616;10.032;2023-05-27T07:55:45;14.20;1.00
10873;DHT22;34586;53.616;10.032;2023-05-27T07:58:11;14.30;1.00
10873;DHT22;34586;53.616;10.032;2023-05-27T08:00:36;14.40;1.00
10873;DHT22;34586;53.616;10.032;2023-05-27T08:03:02;14.40;1.00
10873;DHT22;34586;53.616;10.032;2023-05-27T08:05:28;14.40;1.00
10873;DHT22;34586;53.616;10.032;2023-05-27T08:07:53;14.50;1.00
10873;DHT22;34586;53.616;10.032;2023-05-27T08:10:19;14.70;1.00
10873;DHT22;34586;53.616;10.032;2023-05-27T08:12:44;14.70;1.00
10873;DHT22;34586;53.616;10.032;2023-05-27T08:15:10;14.80;1.00
10873;DHT22;34586;53.616;10.032;2023-05-27T08:17:36;14.90;1.00
10873;DHT22;34586;53.616;10.032;2023-05-27T08:20:01;15.00;1.00
10873;DHT22;34586;53.616;10.032;2023-05-27T08:22:27;15.10;1.00
10873;DHT22;34586;53.616;10.032;2023-05-27T08:24:53;15.10;1.00
10873;DHT22;34586;53.616;10.032;2023-05-27T08:27:20;15.10;1.00
10873;DHT22;34586;53.616;10.032;2023-05-27T08:29:46;15.20;1.00
10873;DHT22;34586;53.616;10.032;2023-05-27T08:32:12;15.20;1.00
10873;DHT22;34586;53.616;10.032;2023-05-27T08:34:38;15.20;1.00
10873;DHT22;34586;53.616;10.032;2023-05-27T08:37:04;15.30;99.90
10873;DHT22;34586;53.616;10.032;2023-05-27T08:39:31;15.20;99.90
10873;DHT22;34586;53.616;10.032;2023-05-27T08:41:57;15.30;99.90
10873;DHT22;34586;53.616;10.032;2023-05-27T08:44:23;15.40;99.90
10873;DHT22;34586;53.616;10.032;2023-05-27T08:46:50;15.50;99.90
10873;DHT22;34586;53.616;10.032;2023-05-27T08:49:16;15.60;99.90
10873;DHT22;34586;53.616;10.032;2023-05-27T08:51:45;15.80;99.90
10873;DHT22;34586;53.616;10.032;2023-05-27T08:54:11;15.90;99.90
10873;DHT22;34586;53.616;10.032;2023-05-27T08:56:37;16.10;99.90
10873;DHT22;34586;53.616;10.032;2023-05-27T08:59:04;16.10;99.90
10873;DHT22;34586;53.616;10.032;2023-05-27T09:01:30;16.20;99.90
10873;DHT22;34586;53.616;10.032;2023-05-27T09:03:57;16.30;99.90
10873;DHT22;34586;53.616;10.032;2023-05-27T09:06:23;16.40;99.90
10873;DHT22;34586;53.616;10.032;2023-05-27T09:08:48;16.50;99.90
10873;DHT22;34586;53.616;10.032;2023-05-27T09:11:24;16.60;99.90
10873;DHT22;34586;53.616;10.032;2023-05-27T09:13:56;16.50;99.90
10873;DHT22;34586;53.616;10.032;2023-05-27T09:16:22;16.50;46.10
10873;DHT22;34586;53.616;10.032;2023-05-27T09:18:49;16.40;67.40
10873;DHT22;34586;53.616;10.032;2023-05-27T09:21:15;16.30;99.90
10873;DHT22;34586;53.616;10.032;2023-05-27T09:23:41;16.20;7.00
10873;DHT22;34586;53.616;10.032;2023-05-27T09:26:10;16.00;99.90
10873;DHT22;34586;53.616;10.032;2023-05-27T09:28:37;16.10;99.90
10873;DHT22;34586;53.616;10.032;2023-05-27T09:31:07;16.00;99.90
10873;DHT22;34586;53.616;10.032;2023-05-27T09:33:38;16.10;99.90
10873;DHT22;34586;53.616;10.032;2023-05-27T09:36:05;16.10;99.90
10873;DHT22;34586;53.616;10.032;2023-05-27T09:38:32;16.20;99.90
10873;DHT22;34586;53.616;10.032;2023-05-27T09:40:59;16.50;99.90
10873;DHT22;34586;53.616;10.032;2023-05-27T09:43:26;16.50;1.00
10873;DHT22;34586;53.616;10.032;2023-05-27T09:45:54;16.60;16.50
10873;DHT22;34586;53.616;10.032;2023-05-27T09:48:23;16.80;1.00
10873;DHT22;34586;53.616;10.032;2023-05-27T09:50:50;17.00;1.00
10873;DHT22;34586;53.616;10.032;2023-05-27T09:53:17;17.00;99.90
10873;DHT22;34586;53.616;10.032;2023-05-27T09:55:43;17.10;99.90
10873;DHT22;34586;53.616;10.032;2023-05-27T09:58:09;17.10;99.90
10873;DHT22;34586;53.616;10.032;2023-05-27T10:00:37;17.10;1.00
10873;DHT22;34586;53.616;10.032;2023-05-27T10:03:06;17.00;1.00
10873;DHT22;34586;53.616;10.032;2023-05-27T10:05:33;17.00;1.00
10873;DHT22;34586;53.616;10.032;2023-05-27T10:07:59;17.10;1.00
10873;DHT22;34586;53.616;10.032;2023-05-27T10:10:25;17.10;1.00
10873;DHT22;34586;53.616;10.032;2023-05-27T10:12:51;17.00;1.00
10873;DHT22;34586;53.616;10.032;2023-05-27T10:15:30;17.10;99.90
10873;DHT22;34586;53.616;10.032;2023-05-27T10:18:06;17.10;1.00
10873;DHT22;34586;53.616;10.032;2023-05-27T10:20:37;17.10;1.00
10873;DHT22;34586;53.616;10.032;2023-05-27T10:23:13;17.00;99.90
10873;DHT22;34586;53.616;10.032;2023-05-27T10:25:45;17.10;1.00
10873;DHT22;34586;53.616;10.032;2023-05-27T10:28:12;17.20;1.00
10873;DHT22;34586;53.616;10.032;2023-05-27T10:30:48;17.20;1.00
10873;DHT22;34586;53.616;10.032;2023-05-27T10:33:13;17.30;1.00
10873;DHT22;34586;53.616;10.032;2023-05-27T10:35:40;17.40;1.00
10873;DHT22;34586;53.616;10.032;2023-05-27T10:38:16;17.60;1.00
10873;DHT22;34586;53.616;10.032;2023-05-27T10:40:43;17.90;1.00
10873;DHT22;34586;53.616;10.032;2023-05-27T10:43:16;18.00;1.00
10873;DHT22;34586;53.616;10.032;2023-05-27T10:45:42;18.10;1.00
10873;DHT22;34586;53.616;10.032;2023-05-27T10:48:20;18.20;20.70
10873;DHT22;34586;53.616;10.032;2023-05-27T10:50:50;18.50;1.00
10873;DHT22;34586;53.616;10.032;2023-05-27T10:53:19;18.50;1.00
10873;DHT22;34586;53.616;10.032;2023-05-27T10:55:47;18.30;99.90
10873;DHT22;34586;53.616;10.032;2023-05-27T10:58:15;18.30;99.90
10873;DHT22;34586;53.616;10.032;2023-05-27T11:00:41;18.60;1.00
10873;DHT22;34586;53.616;10.032;2023-05-27T11:03:23;18.80;99.90
10873;DHT22;34586;53.616;10.032;2023-05-27T11:06:03;18.80;99.90
10873;DHT22;34586;53.616;10.032;2023-05-27T11:08:32;18.90;99.90
10873;DHT22;34586;53.616;10.032;2023-05-27T11:10:59;19.20;99.90
10873;DHT22;34586;53.616;10.032;2023-05-27T11:13:42;19.40;99.90
10873;DHT22;34586;53.616;10.032;2023-05-27T11:16:09;19.30;30.20
10873;DHT22;34586;53.616;10.032;2023-05-27T11:18:38;19.60;99.90
10873;DHT22;34586;53.616;10.032;2023-05-27T11:21:05;19.80;98.30
10873;DHT22;34586;53.616;10.032;2023-05-27T11:23:41;20.00;1.00
10873;DHT22;34586;53.616;10.032;2023-05-27T11:26:20;20.00;99.90
10873;DHT22;34586;53.616;10.032;2023-05-27T11:28:58;20.00;99.90
10873;DHT22;34586;53.616;10.032;2023-05-27T11:31:29;19.90;99.90
10873;DHT22;34586;53.616;10.032;2023-05-27T11:33:55;19.90;99.90
10873;DHT22;34586;53.616;10.032;2023-05-27T11:36:21;19.90;99.90
10873;DHT22;34586;53.616;10.032;2023-05-27T11:38:54;20.20;99.90
10873;DHT22;34586;53.616;10.032;2023-05-27T11:41:22;20.40;1.00
10873;DHT22;34586;53.616;10.032;2023-05-27T11:44:05;20.50;99.90
10873;DHT22;34586;53.616;10.032;2023-05-27T11:46:37;20.80;1.00
10873;DHT22;34586;53.616;10.032;2023-05-27T11:49:08;21.10;1.00
10873;DHT22;34586;53.616;10.032;2023-05-27T11:51:37;21.20;1.00
10873;DHT22;34586;53.616;10.032;2023-05-27T11:54:03;21.60;99.90
10873;DHT22;34586;53.616;10.032;2023-05-27T11:56:29;21.70;99.90
10873;DHT22;34586;53.616;10.032;2023-05-27T11:58:55;21.90;14.30
10873;DHT22;34586;53.616;10.032;2023-05-27T12:01:21;21.80;1.00
10873;DHT22;34586;53.616;10.032;2023-05-27T12:03:47;21.40;1.00
10873;DHT22;34586;53.616;10.032;2023-05-27T12:06:13;21.20;99.90
10873;DHT22;34586;53.616;10.032;2023-05-27T12:08:40;21.10;1.00
10873;DHT22;34586;53.616;10.032;2023-05-27T12:11:06;21.30;1.00
10873;DHT22;34586;53.616;10.032;2023-05-27T12:13:31;21.50;99.90
10873;DHT22;34586;53.616;10.032;2023-05-27T12:15:57;21.60;99.90
10873;DHT22;34586;53.616;10.032;2023-05-27T12:18:23;21.60;99.90
10873;DHT22;34586;53.616;10.032;2023-05-27T12:20:49;21.90;99.90
10873;DHT22;34586;53.616;10.032;2023-05-27T12:23:16;22.60;1.00
10873;DHT22;34586;53.616;10.032;2023-05-27T12:25:42;23.30;99.90
10873;DHT22;34586;53.616;10.032;2023-05-27T12:28:08;24.10;1.00
10873;DHT22;34586;53.616;10.032;2023-05-27T12:30:34;24.80;1.00
10873;DHT22;34586;53.616;10.032;2023-05-27T12:33:01;25.10;1.00
10873;DHT22;34586;53.616;10.032;2023-05-27T12:35:26;26.00;1.00
10873;DHT22;34586;53.616;10.032;2023-05-27T12:37:52;26.50;1.00
10873;DHT22;34586;53.616;10.032;2023-05-27T12:40:18;26.30;1.00
10873;DHT22;34586;53.616;10.032;2023-05-27T12:42:44;26.30;1.00
10873;DHT22;34586;53.616;10.032;2023-05-27T12:45:10;26.00;1.00
10873;DHT22;34586;53.616;10.032;2023-05-27T12:47:36;26.80;1.00
10873;DHT22;34586;53.616;10.032;2023-05-27T12:50:02;26.80;1.00
10873;DHT22;34586;53.616;10.032;2023-05-27T12:52:28;26.70;1.00
10873;DHT22;34586;53.616;10.032;2023-05-27T12:54:54;26.80;1.00
10873;DHT22;34586;53.616;10.032;2023-05-27T12:57:20;26.20;1.00
10873;DHT22;34586;53.616;10.032;2023-05-27T12:59:45;26.20;1.00
10873;DHT22;34586;53.616;10.032;2023-05-27T13:02:11;26.00;1.00
10873;DHT22;34586;53.616;10.032;2023-05-27T13:04:37;25.90;1.00
10873;DHT22;34586;53.616;10.032;2023-05-27T13:07:02;26.30;1.00
10873;DHT22;34586;53.616;10.032;2023-05-27T13:09:28;26.60;1.00
10873;DHT22;34586;53.616;10.032;2023-05-27T13:11:54;26.80;1.00
10873;DHT22;34586;53.616;10.032;2023-05-27T13:14:20;27.00;1.00
10873;DHT22;34586;53.616;10.032;2023-05-27T13:16:45;26.90;1.00
10873;DHT22;34586;53.616;10.032;2023-05-27T13:19:11;27.00;1.00
10873;DHT22;34586;53.616;10.032;2023-05-27T13:21:37;27.00;1.00
10873;DHT22;34586;53.616;10.032;2023-05-27T13:24:03;26.70;1.00
10873;DHT22;34586;53.616;10.032;2023-05-27T13:26:28;26.70;1.00
10873;DHT22;34586;53.616;10.032;2023-05-27T13:28:55;26.90;1.00
10873;DHT22;34586;53.616;10.032;2023-05-27T13:31:21;27.10;1.00
10873;DHT22;34586;53.616;10.032;2023-05-27T13:33:47;27.40;1.00
10873;DHT22;34586;53.616;10.032;2023-05-27T13:36:12;27.30;1.00
10873;DHT22;34586;53.616;10.032;2023-05-27T13:38:38;27.20;1.00
10873;DHT22;34586;53.616;10.032;2023-05-27T13:41:04;27.70;1.00
10873;DHT22;34586;53.616;10.032;2023-05-27T13:43:30;27.60;1.00
10873;DHT22;34586;53.616;10.032;2023-05-27T13:45:55;27.50;1.00
10873;DHT22;34586;53.616;10.032;2023-05-27T13:48:21;27.40;1.00
10873;DHT22;34586;53.616;10.032;2023-05-27T13:50:47;27.50;1.00
10873;DHT22;34586;53.616;10.032;2023-05-27T13:53:12;27.30;1.00
10873;DHT22;34586;53.616;10.032;2023-05-27T13:55:38;27.60;1.00
10873;DHT22;34586;53.616;10.032;2023-05-27T13:58:03;27.40;1.00
10873;DHT22;34586;53.616;10.032;2023-05-27T14:00:29;27.50;1.00
10873;DHT22;34586;53.616;10.032;2023-05-27T14:02:56;27.50;1.00
10873;DHT22;34586;53.616;10.032;2023-05-27T14:05:23;27.40;1.00
10873;DHT22;34586;53.616;10.032;2023-05-27T14:07:49;27.20;1.00
10873;DHT22;34586;53.616;10.032;2023-05-27T14:10:14;27.20;1.00
10873;DHT22;34586;53.616;10.032;2023-05-27T14:12:40;27.10;1.00
10873;DHT22;34586;53.616;10.032;2023-05-27T14:15:06;27.00;1.00
10873;DHT22;34586;53.616;10.032;2023-05-27T14:17:32;26.80;1.00
10873;DHT22;34586;53.616;10.032;2023-05-27T14:19:57;27.20;1.00
10873;DHT22;34586;53.616;10.032;2023-05-27T14:22:24;27.00;1.00
10873;DHT22;34586;53.616;10.032;2023-05-27T14:24:49;26.80;1.00
10873;DHT22;34586;53.616;10.032;2023-05-27T14:27:15;27.00;1.00
10873;DHT22;34586;53.616;10.032;2023-05-27T14:29:41;26.80;1.00
10873;DHT22;34586;53.616;10.032;2023-05-27T14:32:07;26.90;1.00
10873;DHT22;34586;53.616;10.032;2023-05-27T14:34:33;27.10;1.00
10873;DHT22;34586;53.616;10.032;2023-05-27T14:36:58;27.20;1.00
10873;DHT22;34586;53.616;10.032;2023-05-27T14:39:24;26.90;1.00
10873;DHT22;34586;53.616;10.032;2023-05-27T14:41:49;26.90;1.00
10873;DHT22;34586;53.616;10.032;2023-05-27T14:44:15;26.50;1.00
10873;DHT22;34586;53.616;10.032;2023-05-27T14:46:41;26.90;1.00
10873;DHT22;34586;53.616;10.032;2023-05-27T14:49:06;27.00;1.00
10873;DHT22;34586;53.616;10.032;2023-05-27T14:51:32;27.10;1.00
10873;DHT22;34586;53.616;10.032;2023-05-27T14:53:57;27.40;1.00
10873;DHT22;34586;53.616;10.032;2023-05-27T14:56:23;27.70;1.00
10873;DHT22;34586;53.616;10.032;2023-05-27T14:58:49;27.90;1.00
10873;DHT22;34586;53.616;10.032;2023-05-27T15:01:16;27.40;1.00
10873;DHT22;34586;53.616;10.032;2023-05-27T15:03:42;26.40;1.00
10873;DHT22;34586;53.616;10.032;2023-05-27T15:06:08;26.70;1.00
10873;DHT22;34586;53.616;10.032;2023-05-27T15:08:34;27.10;1.00
10873;DHT22;34586;53.616;10.032;2023-05-27T15:11:01;26.70;1.00
10873;DHT22;34586;53.616;10.032;2023-05-27T15:13:27;25.90;1.00
10873;DHT22;34586;53.616;10.032;2023-05-27T15:15:52;25.20;1.00
10873;DHT22;34586;53.616;10.032;2023-05-27T15:18:18;24.50;1.00
10873;DHT22;34586;53.616;10.032;2023-05-27T15:20:44;24.30;1.00
10873;DHT22;34586;53.616;10.032;2023-05-27T15:23:10;24.00;1.00
10873;DHT22;34586;53.616;10.032;2023-05-27T15:25:36;23.80;1.00